sensor_id;sensor_type;location;lat;lon;timestamp;temperature;humidity
46123;DHT22;31856;-35.404;149.120;2023-04-19T00:02:05;14.80;74.10
46123;DHT22;31856;-35.404;149.120;2023-04-19T00:04:36;15.00;72.90
46123;DHT22;31856;-35.404;149.120;2023-04-19T00:07:07;15.10;71.80
46123;DHT22;31856;-35.404;149.120;2023-04-19T00:09:36;15.20;71.40
46123;DHT22;31856;-35.404;149.120;2023-04-19T00:12:06;15.30;71.50
46123;DHT22;31856;-35.404;149.120;2023-04-19T00:14:35;15.40;70.10
46123;DHT22;31856;-35.404;149.120;2023-04-19T00:17:05;15.50;70.80
46123;DHT22;31856;-35.404;149.120;2023-04-19T00:19:34;15.70;69.70
46123;DHT22;31856;-35.404;149.120;2023-04-19T00:22:04;15.70;69.60
46123;DHT22;31856;-35.404;149.120;2023-04-19T00:24:34;15.80;70.10
46123;DHT22;31856;-35.404;149.120;2023-04-19T00:27:03;15.80;69.40
46123;DHT22;31856;-35.404;149.120;2023-04-19T00:29:32;15.90;68.80
46123;DHT22;31856;-35.404;149.120;2023-04-19T00:32:02;16.00;68.50
46123;DHT22;31856;-35.404;149.120;2023-04-19T00:34:36;16.10;68.10
46123;DHT22;31856;-35.404;149.120;2023-04-19T00:37:08;16.20;68.50
46123;DHT22;31856;-35.404;149.120;2023-04-19T00:39:39;16.20;68.20
46123;DHT22;31856;-35.404;149.120;2023-04-19T00:42:09;16.30;67.30
46123;DHT22;31856;-35.404;149.120;2023-04-19T00:44:38;16.40;66.80
46123;DHT22;31856;-35.404;149.120;2023-04-19T00:47:08;16.50;67.30
46123;DHT22;31856;-35.404;149.120;2023-04-19T00:49:44;16.70;67.40
46123;DHT22;31856;-35.404;149.120;2023-04-19T00:52:39;16.80;65.80
46123;DHT22;31856;-35.404;149.120;2023-04-19T00:55:18;16.90;66.40
46123;DHT22;31856;-35.404;149.120;2023-04-19T00:58:00;17.10;65.40
46123;DHT22;31856;-35.404;149.120;2023-04-19T01:00:54;17.20;65.80
46123;DHT22;31856;-35.404;149.120;2023-04-19T01:03:50;17.30;65.30
46123;DHT22;31856;-35.404;149.120;2023-04-19T01:09:17;17.50;64.30
46123;DHT22;31856;-35.404;149.120;2023-04-19T01:12:00;17.50;63.50
46123;DHT22;31856;-35.404;149.120;2023-04-19T01:14:31;17.70;64.40
46123;DHT22;31856;-35.404;149.120;2023-04-19T01:17:03;17.70;63.10
46123;DHT22;31856;-35.404;149.120;2023-04-19T01:19:39;17.80;62.40
46123;DHT22;31856;-35.404;149.120;2023-04-19T01:22:13;17.80;61.60
46123;DHT22;31856;-35.404;149.120;2023-04-19T01:24:43;17.90;59.70
46123;DHT22;31856;-35.404;149.120;2023-04-19T01:27:16;17.90;59.40
46123;DHT22;31856;-35.404;149.120;2023-04-19T01:29:55;17.90;58.30
46123;DHT22;31856;-35.404;149.120;2023-04-19T01:32:34;18.10;60.30
46123;DHT22;31856;-35.404;149.120;2023-04-19T01:35:04;18.20;61.20
46123;DHT22;31856;-35.404;149.120;2023-04-19T01:37:34;18.30;60.20
46123;DHT22;31856;-35.404;149.120;2023-04-19T01:40:04;18.30;59.50
46123;DHT22;31856;-35.404;149.120;2023-04-19T01:42:33;18.40;57.90
46123;DHT22;31856;-35.404;149.120;2023-04-19T01:45:03;18.40;56.80
46123;DHT22;31856;-35.404;149.120;2023-04-19T01:47:36;18.50;58.10
46123;DHT22;31856;-35.404;149.120;2023-04-19T01:50:06;18.70;58.40
46123;DHT22;31856;-35.404;149.120;2023-04-19T01:52:47;18.80;58.00
46123;DHT22;31856;-35.404;149.120;2023-04-19T01:58:51;19.10;56.10
46123;DHT22;31856;-35.404;149.120;2023-04-19T02:01:27;19.10;55.20
46123;DHT22;31856;-35.404;149.120;2023-04-19T02:03:56;19.20;56.20
46123;DHT22;31856;-35.404;149.120;2023-04-19T02:06:30;19.30;56.10
46123;DHT22;31856;-35.404;149.120;2023-04-19T02:09:06;19.30;55.60
46123;DHT22;31856;-35.404;149.120;2023-04-19T02:11:36;19.50;55.60
46123;DHT22;31856;-35.404;149.120;2023-04-19T02:14:05;19.60;55.70
46123;DHT22;31856;-35.404;149.120;2023-04-19T02:16:35;19.70;55.50
46123;DHT22;31856;-35.404;149.120;2023-04-19T02:19:04;19.80;55.00
46123;DHT22;31856;-35.404;149.120;2023-04-19T02:21:34;19.80;56.20
46123;DHT22;31856;-35.404;149.120;2023-04-19T02:24:04;19.80;55.00
46123;DHT22;31856;-35.404;149.120;2023-04-19T02:26:33;19.90;53.30
46123;DHT22;31856;-35.404;149.120;2023-04-19T02:29:03;20.00;53.20
46123;DHT22;31856;-35.404;149.120;2023-04-19T02:31:33;20.00;53.00
46123;DHT22;31856;-35.404;149.120;2023-04-19T02:34:02;20.10;53.20
46123;DHT22;31856;-35.404;149.120;2023-04-19T02:36:32;20.00;51.80
46123;DHT22;31856;-35.404;149.120;2023-04-19T02:39:01;20.00;51.80
46123;DHT22;31856;-35.404;149.120;2023-04-19T02:41:31;20.00;52.50
46123;DHT22;31856;-35.404;149.120;2023-04-19T02:44:00;20.00;52.50
46123;DHT22;31856;-35.404;149.120;2023-04-19T02:46:30;20.00;51.80
46123;DHT22;31856;-35.404;149.120;2023-04-19T02:49:03;20.00;52.30
46123;DHT22;31856;-35.404;149.120;2023-04-19T02:51:33;20.10;52.70
46123;DHT22;31856;-35.404;149.120;2023-04-19T02:54:02;20.20;53.30
46123;DHT22;31856;-35.404;149.120;2023-04-19T02:56:32;20.40;54.10
46123;DHT22;31856;-35.404;149.120;2023-04-19T02:59:01;20.40;52.70
46123;DHT22;31856;-35.404;149.120;2023-04-19T03:01:31;20.40;50.90
46123;DHT22;31856;-35.404;149.120;2023-04-19T03:04:04;20.40;51.10
46123;DHT22;31856;-35.404;149.120;2023-04-19T03:06:57;20.40;50.30
46123;DHT22;31856;-35.404;149.120;2023-04-19T03:09:27;20.40;51.10
46123;DHT22;31856;-35.404;149.120;2023-04-19T03:11:57;20.40;51.30
46123;DHT22;31856;-35.404;149.120;2023-04-19T03:14:32;20.40;51.60
46123;DHT22;31856;-35.404;149.120;2023-04-19T03:17:05;20.50;51.40
46123;DHT22;31856;-35.404;149.120;2023-04-19T03:19:34;20.70;51.90
46123;DHT22;31856;-35.404;149.120;2023-04-19T03:22:04;20.70;51.90
46123;DHT22;31856;-35.404;149.120;2023-04-19T03:24:33;20.70;50.80
46123;DHT22;31856;-35.404;149.120;2023-04-19T03:27:04;20.70;50.30
46123;DHT22;31856;-35.404;149.120;2023-04-19T03:29:33;20.70;50.50
46123;DHT22;31856;-35.404;149.120;2023-04-19T03:32:03;20.80;50.60
46123;DHT22;31856;-35.404;149.120;2023-04-19T03:34:32;20.80;49.60
46123;DHT22;31856;-35.404;149.120;2023-04-19T03:37:02;20.80;50.20
46123;DHT22;31856;-35.404;149.120;2023-04-19T03:39:36;20.80;51.00
46123;DHT22;31856;-35.404;149.120;2023-04-19T03:42:08;21.00;51.30
46123;DHT22;31856;-35.404;149.120;2023-04-19T03:44:38;21.10;50.80
46123;DHT22;31856;-35.404;149.120;2023-04-19T03:47:07;21.10;50.00
46123;DHT22;31856;-35.404;149.120;2023-04-19T03:49:37;21.10;50.10
46123;DHT22;31856;-35.404;149.120;2023-04-19T03:52:09;21.10;49.80
46123;DHT22;31856;-35.404;149.120;2023-04-19T03:54:39;21.20;49.70
46123;DHT22;31856;-35.404;149.120;2023-04-19T03:57:09;21.20;49.70
46123;DHT22;31856;-35.404;149.120;2023-04-19T03:59:40;21.30;49.70
46123;DHT22;31856;-35.404;149.120;2023-04-19T04:02:10;21.30;49.60
46123;DHT22;31856;-35.404;149.120;2023-04-19T04:04:40;21.40;49.50
46123;DHT22;31856;-35.404;149.120;2023-04-19T04:43:51;21.30;48.50
46123;DHT22;31856;-35.404;149.120;2023-04-19T04:46:38;21.30;48.70
46123;DHT22;31856;-35.404;149.120;2023-04-19T04:49:07;21.30;48.50
46123;DHT22;31856;-35.404;149.120;2023-04-19T04:51:40;21.30;49.10
46123;DHT22;31856;-35.404;149.120;2023-04-19T04:54:09;21.30;48.10
46123;DHT22;31856;-35.404;149.120;2023-04-19T04:56:42;21.40;49.20
46123;DHT22;31856;-35.404;149.120;2023-04-19T04:59:14;21.30;48.00
46123;DHT22;31856;-35.404;149.120;2023-04-19T05:01:44;21.40;48.70
46123;DHT22;31856;-35.404;149.120;2023-04-19T05:04:14;21.50;48.80
46123;DHT22;31856;-35.404;149.120;2023-04-19T05:06:44;21.60;48.10
46123;DHT22;31856;-35.404;149.120;2023-04-19T05:09:13;21.50;48.00
46123;DHT22;31856;-35.404;149.120;2023-04-19T05:11:43;21.60;49.00
46123;DHT22;31856;-35.404;149.120;2023-04-19T05:14:13;21.70;48.40
46123;DHT22;31856;-35.404;149.120;2023-04-19T05:16:43;21.70;47.70
46123;DHT22;31856;-35.404;149.120;2023-04-19T05:19:13;21.70;48.40
46123;DHT22;31856;-35.404;149.120;2023-04-19T05:21:43;21.40;48.30
46123;DHT22;31856;-35.404;149.120;2023-04-19T05:24:12;21.50;48.80
46123;DHT22;31856;-35.404;149.120;2023-04-19T05:26:42;21.60;49.70
46123;DHT22;31856;-35.404;149.120;2023-04-19T05:29:12;21.60;48.30
46123;DHT22;31856;-35.404;149.120;2023-04-19T05:31:42;21.60;48.10
46123;DHT22;31856;-35.404;149.120;2023-04-19T05:34:11;21.60;48.80
46123;DHT22;31856;-35.404;149.120;2023-04-19T05:36:41;21.60;49.20
46123;DHT22;31856;-35.404;149.120;2023-04-19T05:39:11;21.60;49.70
46123;DHT22;31856;-35.404;149.120;2023-04-19T05:41:41;21.50;48.10
46123;DHT22;31856;-35.404;149.120;2023-04-19T05:44:10;21.60;48.90
46123;DHT22;31856;-35.404;149.120;2023-04-19T05:46:40;21.50;48.70
46123;DHT22;31856;-35.404;149.120;2023-04-19T11:08:21;15.40;73.50
46123;DHT22;31856;-35.404;149.120;2023-04-19T11:10:51;15.30;73.40
46123;DHT22;31856;-35.404;149.120;2023-04-19T11:13:24;15.30;73.30
46123;DHT22;31856;-35.404;149.120;2023-04-19T11:15:57;15.30;73.70
46123;DHT22;31856;-35.404;149.120;2023-04-19T11:18:29;15.30;73.70
46123;DHT22;31856;-35.404;149.120;2023-04-19T11:20:59;15.30;73.90
46123;DHT22;31856;-35.404;149.120;2023-04-19T11:23:28;15.30;73.70
46123;DHT22;31856;-35.404;149.120;2023-04-19T11:25:58;15.30;74.00
46123;DHT22;31856;-35.404;149.120;2023-04-19T11:28:28;15.30;74.10
46123;DHT22;31856;-35.404;149.120;2023-04-19T11:30:57;15.30;74.30
46123;DHT22;31856;-35.404;149.120;2023-04-19T11:33:31;15.20;74.10
46123;DHT22;31856;-35.404;149.120;2023-04-19T11:36:01;15.30;74.10
46123;DHT22;31856;-35.404;149.120;2023-04-19T11:38:32;15.30;74.10
46123;DHT22;31856;-35.404;149.120;2023-04-19T11:41:03;15.20;74.10
46123;DHT22;31856;-35.404;149.120;2023-04-19T11:43:36;15.20;74.10
46123;DHT22;31856;-35.404;149.120;2023-04-19T11:46:09;15.20;74.20
46123;DHT22;31856;-35.404;149.120;2023-04-19T11:48:49;15.20;74.50
46123;DHT22;31856;-35.404;149.120;2023-04-19T11:51:19;15.20;74.50
46123;DHT22;31856;-35.404;149.120;2023-04-19T11:53:49;15.10;74.80
46123;DHT22;31856;-35.404;149.120;2023-04-19T11:56:18;15.20;74.80
46123;DHT22;31856;-35.404;149.120;2023-04-19T11:58:48;15.10;74.80
46123;DHT22;31856;-35.404;149.120;2023-04-19T12:01:18;15.10;75.10
46123;DHT22;31856;-35.404;149.120;2023-04-19T12:03:52;15.10;75.40
46123;DHT22;31856;-35.404;149.120;2023-04-19T12:06:25;15.10;75.00
46123;DHT22;31856;-35.404;149.120;2023-04-19T12:08:55;15.20;75.00
46123;DHT22;31856;-35.404;149.120;2023-04-19T12:11:40;15.20;74.80
46123;DHT22;31856;-35.404;149.120;2023-04-19T12:14:14;15.20;75.10
46123;DHT22;31856;-35.404;149.120;2023-04-19T12:16:44;15.20;75.10
46123;DHT22;31856;-35.404;149.120;2023-04-19T12:19:14;15.10;74.80
46123;DHT22;31856;-35.404;149.120;2023-04-19T12:21:45;15.20;74.90
46123;DHT22;31856;-35.404;149.120;2023-04-19T12:24:15;15.20;75.00
46123;DHT22;31856;-35.404;149.120;2023-04-19T12:26:52;15.20;74.70
46123;DHT22;31856;-35.404;149.120;2023-04-19T12:29:23;15.20;75.10
46123;DHT22;31856;-35.404;149.120;2023-04-19T12:31:52;15.10;75.30
46123;DHT22;31856;-35.404;149.120;2023-04-19T12:34:22;15.20;75.20
46123;DHT22;31856;-35.404;149.120;2023-04-19T12:36:52;15.20;75.40
46123;DHT22;31856;-35.404;149.120;2023-04-19T12:39:21;15.20;75.30
46123;DHT22;31856;-35.404;149.120;2023-04-19T12:41:51;15.10;75.20
46123;DHT22;31856;-35.404;149.120;2023-04-19T12:44:20;15.10;75.10
46123;DHT22;31856;-35.404;149.120;2023-04-19T12:46:50;15.10;75.40
46123;DHT22;31856;-35.404;149.120;2023-04-19T12:49:24;15.10;75.60
46123;DHT22;31856;-35.404;149.120;2023-04-19T12:51:54;15.10;75.90
46123;DHT22;31856;-35.404;149.120;2023-04-19T12:54:23;15.10;75.80
46123;DHT22;31856;-35.404;149.120;2023-04-19T12:56:53;15.20;76.00
46123;DHT22;31856;-35.404;149.120;2023-04-19T12:59:23;15.20;76.00
46123;DHT22;31856;-35.404;149.120;2023-04-19T13:01:53;15.20;75.80
46123;DHT22;31856;-35.404;149.120;2023-04-19T13:04:22;15.20;75.70
46123;DHT22;31856;-35.404;149.120;2023-04-19T13:06:52;15.20;75.60
46123;DHT22;31856;-35.404;149.120;2023-04-19T13:09:21;15.20;76.00
46123;DHT22;31856;-35.404;149.120;2023-04-19T13:11:51;15.20;75.90
46123;DHT22;31856;-35.404;149.120;2023-04-19T13:14:20;15.20;76.20
46123;DHT22;31856;-35.404;149.120;2023-04-19T13:16:50;15.20;75.90
46123;DHT22;31856;-35.404;149.120;2023-04-19T13:19:19;15.20;76.00
46123;DHT22;31856;-35.404;149.120;2023-04-19T13:21:49;15.20;76.00
46123;DHT22;31856;-35.404;149.120;2023-04-19T13:24:18;15.20;76.30
46123;DHT22;31856;-35.404;149.120;2023-04-19T13:26:48;15.10;76.60
46123;DHT22;31856;-35.404;149.120;2023-04-19T13:29:17;15.10;76.30
46123;DHT22;31856;-35.404;149.120;2023-04-19T13:31:47;15.20;76.20
46123;DHT22;31856;-35.404;149.120;2023-04-19T13:34:17;15.20;76.60
46123;DHT22;31856;-35.404;149.120;2023-04-19T13:36:46;15.20;76.60
46123;DHT22;31856;-35.404;149.120;2023-04-19T13:39:16;15.20;76.30
46123;DHT22;31856;-35.404;149.120;2023-04-19T13:41:45;15.10;76.20
46123;DHT22;31856;-35.404;149.120;2023-04-19T13:44:15;15.20;76.40
46123;DHT22;31856;-35.404;149.120;2023-04-19T13:46:44;15.20;76.50
46123;DHT22;31856;-35.404;149.120;2023-04-19T13:49:14;15.10;76.50
46123;DHT22;31856;-35.404;149.120;2023-04-19T13:51:43;15.20;76.70
46123;DHT22;31856;-35.404;149.120;2023-04-19T13:54:17;15.20;76.90
46123;DHT22;31856;-35.404;149.120;2023-04-19T13:56:47;15.10;76.90
46123;DHT22;31856;-35.404;149.120;2023-04-19T13:59:18;15.20;76.80
46123;DHT22;31856;-35.404;149.120;2023-04-19T14:01:48;15.20;76.80
46123;DHT22;31856;-35.404;149.120;2023-04-19T14:04:18;15.20;76.70
46123;DHT22;31856;-35.404;149.120;2023-04-19T14:06:48;15.20;76.50
46123;DHT22;31856;-35.404;149.120;2023-04-19T14:09:18;15.20;76.60
46123;DHT22;31856;-35.404;149.120;2023-04-19T14:11:48;15.20;76.60
46123;DHT22;31856;-35.404;149.120;2023-04-19T14:14:18;15.20;76.50
46123;DHT22;31856;-35.404;149.120;2023-04-19T14:16:48;15.20;76.40
46123;DHT22;31856;-35.404;149.120;2023-04-19T14:19:18;15.20;76.50
46123;DHT22;31856;-35.404;149.120;2023-04-19T14:21:48;15.20;76.60
46123;DHT22;31856;-35.404;149.120;2023-04-19T14:24:17;15.20;76.60
46123;DHT22;31856;-35.404;149.120;2023-04-19T14:26:46;15.20;76.50
46123;DHT22;31856;-35.404;149.120;2023-04-19T14:29:35;15.10;76.50
46123;DHT22;31856;-35.404;149.120;2023-04-19T14:32:04;15.10;76.90
46123;DHT22;31856;-35.404;149.120;2023-04-19T14:34:52;15.10;76.80
46123;DHT22;31856;-35.404;149.120;2023-04-19T14:37:22;15.10;76.70
46123;DHT22;31856;-35.404;149.120;2023-04-19T14:39:52;15.10;77.10
46123;DHT22;31856;-35.404;149.120;2023-04-19T14:42:22;15.10;77.20
46123;DHT22;31856;-35.404;149.120;2023-04-19T14:44:51;15.10;77.20
46123;DHT22;31856;-35.404;149.120;2023-04-19T14:47:21;15.10;77.30
46123;DHT22;31856;-35.404;149.120;2023-04-19T14:49:51;15.10;77.30
46123;DHT22;31856;-35.404;149.120;2023-04-19T14:52:21;15.10;77.20
46123;DHT22;31856;-35.404;149.120;2023-04-19T14:54:50;15.10;77.50
46123;DHT22;31856;-35.404;149.120;2023-04-19T14:57:19;15.10;77.30
46123;DHT22;31856;-35.404;149.120;2023-04-19T14:59:49;15.00;77.20
46123;DHT22;31856;-35.404;149.120;2023-04-19T15:02:25;15.00;77.10
46123;DHT22;31856;-35.404;149.120;2023-04-19T15:04:55;15.00;77.30
46123;DHT22;31856;-35.404;149.120;2023-04-19T15:07:25;15.00;77.30
46123;DHT22;31856;-35.404;149.120;2023-04-19T15:09:56;15.00;77.40
46123;DHT22;31856;-35.404;149.120;2023-04-19T15:12:25;15.00;77.40
46123;DHT22;31856;-35.404;149.120;2023-04-19T15:14:55;15.00;77.30
46123;DHT22;31856;-35.404;149.120;2023-04-19T15:17:24;14.90;77.30
46123;DHT22;31856;-35.404;149.120;2023-04-19T15:19:54;14.90;77.30
46123;DHT22;31856;-35.404;149.120;2023-04-19T15:22:23;14.90;77.20
46123;DHT22;31856;-35.404;149.120;2023-04-19T15:24:53;14.90;76.90
46123;DHT22;31856;-35.404;149.120;2023-04-19T15:27:22;14.90;77.00
46123;DHT22;31856;-35.404;149.120;2023-04-19T15:29:52;14.80;76.80
46123;DHT22;31856;-35.404;149.120;2023-04-19T15:32:21;14.80;76.70
46123;DHT22;31856;-35.404;149.120;2023-04-19T15:34:51;14.80;77.00
46123;DHT22;31856;-35.404;149.120;2023-04-19T15:37:20;14.80;77.10
46123;DHT22;31856;-35.404;149.120;2023-04-19T15:39:50;14.80;77.00
46123;DHT22;31856;-35.404;149.120;2023-04-19T15:42:19;14.80;76.80
46123;DHT22;31856;-35.404;149.120;2023-04-19T15:44:49;14.80;76.90
46123;DHT22;31856;-35.404;149.120;2023-04-19T15:47:18;14.80;76.70
46123;DHT22;31856;-35.404;149.120;2023-04-19T15:49:48;14.80;76.60
46123;DHT22;31856;-35.404;149.120;2023-04-19T15:52:20;14.70;76.60
46123;DHT22;31856;-35.404;149.120;2023-04-19T15:54:49;14.80;76.70
46123;DHT22;31856;-35.404;149.120;2023-04-19T15:57:19;14.70;76.70
46123;DHT22;31856;-35.404;149.120;2023-04-19T15:59:49;14.70;76.60
46123;DHT22;31856;-35.404;149.120;2023-04-19T16:02:18;14.70;76.40
46123;DHT22;31856;-35.404;149.120;2023-04-19T16:04:48;14.70;76.30
46123;DHT22;31856;-35.404;149.120;2023-04-19T16:07:18;14.70;76.30
46123;DHT22;31856;-35.404;149.120;2023-04-19T16:09:48;14.70;76.40
46123;DHT22;31856;-35.404;149.120;2023-04-19T16:12:17;14.70;76.50
46123;DHT22;31856;-35.404;149.120;2023-04-19T16:14:46;14.60;76.50
46123;DHT22;31856;-35.404;149.120;2023-04-19T16:49:05;14.40;76.80
46123;DHT22;31856;-35.404;149.120;2023-04-19T16:51:35;14.40;76.80
46123;DHT22;31856;-35.404;149.120;2023-04-19T16:54:04;14.50;76.70
46123;DHT22;31856;-35.404;149.120;2023-04-19T16:56:34;14.40;76.70
46123;DHT22;31856;-35.404;149.120;2023-04-19T16:59:03;14.40;76.80
46123;DHT22;31856;-35.404;149.120;2023-04-19T17:01:33;14.30;76.70
46123;DHT22;31856;-35.404;149.120;2023-04-19T17:04:02;14.20;77.60
46123;DHT22;31856;-35.404;149.120;2023-04-19T17:06:32;14.20;78.20
46123;DHT22;31856;-35.404;149.120;2023-04-19T17:09:02;14.10;78.30
46123;DHT22;31856;-35.404;149.120;2023-04-19T17:11:35;14.10;78.40
46123;DHT22;31856;-35.404;149.120;2023-04-19T17:14:04;14.00;78.40
46123;DHT22;31856;-35.404;149.120;2023-04-19T17:16:34;14.00;78.30
46123;DHT22;31856;-35.404;149.120;2023-04-19T17:19:03;14.00;78.30
46123;DHT22;31856;-35.404;149.120;2023-04-19T17:21:33;14.00;78.10
46123;DHT22;31856;-35.404;149.120;2023-04-19T17:24:02;14.00;77.90
46123;DHT22;31856;-35.404;149.120;2023-04-19T17:26:32;14.00;77.60
46123;DHT22;31856;-35.404;149.120;2023-04-19T17:29:01;14.00;77.40
46123;DHT22;31856;-35.404;149.120;2023-04-19T17:31:31;14.00;76.70
46123;DHT22;31856;-35.404;149.120;2023-04-19T17:34:00;14.10;76.40
46123;DHT22;31856;-35.404;149.120;2023-04-19T17:36:30;14.10;75.90
46123;DHT22;31856;-35.404;149.120;2023-04-19T17:38:59;14.00;75.60
46123;DHT22;31856;-35.404;149.120;2023-04-19T17:41:29;13.90;75.70
46123;DHT22;31856;-35.404;149.120;2023-04-19T17:43:58;13.90;75.60
46123;DHT22;31856;-35.404;149.120;2023-04-19T17:46:28;13.90;75.40
46123;DHT22;31856;-35.404;149.120;2023-04-19T17:48:57;13.80;75.30
46123;DHT22;31856;-35.404;149.120;2023-04-19T17:51:27;13.80;75.40
46123;DHT22;31856;-35.404;149.120;2023-04-19T17:53:56;13.80;75.50
46123;DHT22;31856;-35.404;149.120;2023-04-19T17:56:26;13.80;75.50
46123;DHT22;31856;-35.404;149.120;2023-04-19T17:58:56;13.70;75.20
46123;DHT22;31856;-35.404;149.120;2023-04-19T18:01:28;13.70;75.00
46123;DHT22;31856;-35.404;149.120;2023-04-19T18:03:57;13.70;74.90
46123;DHT22;31856;-35.404;149.120;2023-04-19T18:06:27;13.70;75.00
46123;DHT22;31856;-35.404;149.120;2023-04-19T18:08:57;13.70;75.00
46123;DHT22;31856;-35.404;149.120;2023-04-19T18:11:26;13.60;75.30
46123;DHT22;31856;-35.404;149.120;2023-04-19T18:13:55;13.60;75.30
46123;DHT22;31856;-35.404;149.120;2023-04-19T18:16:25;13.60;75.40
46123;DHT22;31856;-35.404;149.120;2023-04-19T18:18:54;13.60;75.40
46123;DHT22;31856;-35.404;149.120;2023-04-19T18:21:24;13.60;75.50
46123;DHT22;31856;-35.404;149.120;2023-04-19T18:23:54;13.60;75.60
46123;DHT22;31856;-35.404;149.120;2023-04-19T18:26:24;13.60;75.70
46123;DHT22;31856;-35.404;149.120;2023-04-19T18:28:53;13.60;75.80
46123;DHT22;31856;-35.404;149.120;2023-04-19T18:31:23;13.50;75.80
46123;DHT22;31856;-35.404;149.120;2023-04-19T18:33:53;13.50;76.00
46123;DHT22;31856;-35.404;149.120;2023-04-19T18:36:22;13.50;75.80
46123;DHT22;31856;-35.404;149.120;2023-04-19T18:38:52;13.40;75.90
46123;DHT22;31856;-35.404;149.120;2023-04-19T18:41:21;13.40;75.80
46123;DHT22;31856;-35.404;149.120;2023-04-19T18:43:51;13.40;75.80
46123;DHT22;31856;-35.404;149.120;2023-04-19T18:46:42;13.40;76.30
46123;DHT22;31856;-35.404;149.120;2023-04-19T18:49:11;13.40;76.40
46123;DHT22;31856;-35.404;149.120;2023-04-19T18:51:41;13.30;76.50
46123;DHT22;31856;-35.404;149.120;2023-04-19T18:54:11;13.40;76.50
46123;DHT22;31856;-35.404;149.120;2023-04-19T18:56:40;13.40;76.50
46123;DHT22;31856;-35.404;149.120;2023-04-19T18:59:12;13.40;76.60
46123;DHT22;31856;-35.404;149.120;2023-04-19T19:01:43;13.40;76.50
46123;DHT22;31856;-35.404;149.120;2023-04-19T19:04:17;13.30;76.70
46123;DHT22;31856;-35.404;149.120;2023-04-19T19:07:06;13.30;76.80
46123;DHT22;31856;-35.404;149.120;2023-04-19T19:09:56;13.30;77.30
46123;DHT22;31856;-35.404;149.120;2023-04-19T19:12:35;13.30;77.30
46123;DHT22;31856;-35.404;149.120;2023-04-19T19:15:05;13.30;77.60
46123;DHT22;31856;-35.404;149.120;2023-04-19T19:17:35;13.30;77.60
46123;DHT22;31856;-35.404;149.120;2023-04-19T19:20:04;13.30;77.70
46123;DHT22;31856;-35.404;149.120;2023-04-19T19:22:34;13.30;77.60
46123;DHT22;31856;-35.404;149.120;2023-04-19T19:25:04;13.30;77.50
46123;DHT22;31856;-35.404;149.120;2023-04-19T19:27:34;13.30;77.40
46123;DHT22;31856;-35.404;149.120;2023-04-19T19:30:04;13.30;77.40
46123;DHT22;31856;-35.404;149.120;2023-04-19T19:32:34;13.30;77.50
46123;DHT22;31856;-35.404;149.120;2023-04-19T19:35:03;13.30;77.80
46123;DHT22;31856;-35.404;149.120;2023-04-19T19:37:34;13.30;77.60
46123;DHT22;31856;-35.404;149.120;2023-04-19T19:40:05;13.20;77.50
46123;DHT22;31856;-35.404;149.120;2023-04-19T19:42:37;13.20;77.40
46123;DHT22;31856;-35.404;149.120;2023-04-19T19:45:09;13.20;77.60
46123;DHT22;31856;-35.404;149.120;2023-04-19T19:47:39;13.20;77.50
46123;DHT22;31856;-35.404;149.120;2023-04-19T19:50:12;13.20;77.50
46123;DHT22;31856;-35.404;149.120;2023-04-19T19:52:44;13.10;77.60
46123;DHT22;31856;-35.404;149.120;2023-04-19T19:55:14;13.10;77.40
46123;DHT22;31856;-35.404;149.120;2023-04-19T19:57:43;13.10;77.60
46123;DHT22;31856;-35.404;149.120;2023-04-19T20:00:15;13.20;77.80
46123;DHT22;31856;-35.404;149.120;2023-04-19T20:02:50;13.10;78.00
46123;DHT22;31856;-35.404;149.120;2023-04-19T20:05:22;13.10;78.00
46123;DHT22;31856;-35.404;149.120;2023-04-19T20:08:02;13.20;77.80
46123;DHT22;31856;-35.404;149.120;2023-04-19T20:10:35;13.20;77.70
46123;DHT22;31856;-35.404;149.120;2023-04-19T20:13:04;13.20;77.80
46123;DHT22;31856;-35.404;149.120;2023-04-19T20:15:34;13.20;77.80
46123;DHT22;31856;-35.404;149.120;2023-04-19T20:18:04;13.20;77.70
46123;DHT22;31856;-35.404;149.120;2023-04-19T20:20:35;13.20;77.60
46123;DHT22;31856;-35.404;149.120;2023-04-19T20:23:05;13.30;77.80
46123;DHT22;31856;-35.404;149.120;2023-04-19T20:25:34;13.20;78.00
46123;DHT22;31856;-35.404;149.120;2023-04-19T20:28:06;13.20;77.90
46123;DHT22;31856;-35.404;149.120;2023-04-19T20:30:37;13.20;77.90
46123;DHT22;31856;-35.404;149.120;2023-04-19T20:33:06;13.20;78.00
46123;DHT22;31856;-35.404;149.120;2023-04-19T20:35:36;13.20;78.00
46123;DHT22;31856;-35.404;149.120;2023-04-19T20:38:05;13.20;77.90
46123;DHT22;31856;-35.404;149.120;2023-04-19T20:40:35;13.20;78.30
46123;DHT22;31856;-35.404;149.120;2023-04-19T20:43:05;13.20;78.00
46123;DHT22;31856;-35.404;149.120;2023-04-19T20:45:35;13.30;78.10
46123;DHT22;31856;-35.404;149.120;2023-04-19T20:48:05;13.20;78.00
46123;DHT22;31856;-35.404;149.120;2023-04-19T20:50:36;13.20;78.10
46123;DHT22;31856;-35.404;149.120;2023-04-19T20:53:05;13.20;78.30
46123;DHT22;31856;-35.404;149.120;2023-04-19T20:55:35;13.20;78.50
46123;DHT22;31856;-35.404;149.120;2023-04-19T20:58:06;13.20;78.60
46123;DHT22;31856;-35.404;149.120;2023-04-19T21:00:35;13.20;78.30
46123;DHT22;31856;-35.404;149.120;2023-04-19T21:08:34;13.30;77.80
46123;DHT22;31856;-35.404;149.120;2023-04-19T21:11:03;13.30;77.30
46123;DHT22;31856;-35.404;149.120;2023-04-19T21:13:33;13.20;77.60
46123;DHT22;31856;-35.404;149.120;2023-04-19T21:16:02;13.20;77.70
46123;DHT22;31856;-35.404;149.120;2023-04-19T21:18:32;13.30;77.30
46123;DHT22;31856;-35.404;149.120;2023-04-19T21:21:01;13.30;76.80
46123;DHT22;31856;-35.404;149.120;2023-04-19T21:23:31;13.30;76.70
46123;DHT22;31856;-35.404;149.120;2023-04-19T21:26:00;13.30;77.20
46123;DHT22;31856;-35.404;149.120;2023-04-19T21:28:35;13.30;77.40
46123;DHT22;31856;-35.404;149.120;2023-04-19T21:31:04;13.30;77.70
46123;DHT22;31856;-35.404;149.120;2023-04-19T21:33:34;13.30;77.50
46123;DHT22;31856;-35.404;149.120;2023-04-19T21:36:04;13.30;77.60
46123;DHT22;31856;-35.404;149.120;2023-04-19T21:38:33;13.30;77.60
46123;DHT22;31856;-35.404;149.120;2023-04-19T21:41:04;13.30;77.30
46123;DHT22;31856;-35.404;149.120;2023-04-19T21:43:34;13.40;77.20
46123;DHT22;31856;-35.404;149.120;2023-04-19T21:46:04;13.50;77.30
46123;DHT22;31856;-35.404;149.120;2023-04-19T21:48:33;13.50;77.20
46123;DHT22;31856;-35.404;149.120;2023-04-19T21:51:03;13.50;77.30